Weather at Antalya International Airport

Public forecast

Using degrees Celsius for public forecast. Weather courtesy of forecast.io.

Current aviation weather report (METAR) for Antalya International Airport

Retrieved 2022/01/29 07:50 UTC (28 minutes ago):

LTAI 290750Z 01006KT 9999 FEW030 08/M06 Q1022 NOSIG RMK RWY18C 34006KT RWY36R 35008KT RWY18L 35004KT 320V040

Aviation forecast (TAF) for Antalya International Airport

Retrieved 2022/01/29 06:03 UTC (2 hours ago):

TAF LTAI 290440Z 2906/3006 34006KT CAVOK BECMG 2906/2909 SCT030 BKN100 BECMG 2918/2921 -SHRA BKN030